createdAt,value
2023-03-12T00:00:52.343Z,1.09
2023-03-12T00:03:18.896Z,1.06
2023-03-12T00:05:46.040Z,1.03
2023-03-12T00:08:13.547Z,1.02
2023-03-12T00:10:40.864Z,1.02
2023-03-12T00:13:07.751Z,1.00
2023-03-12T00:15:38.955Z,0.96
2023-03-12T00:18:05.752Z,0.89
2023-03-12T00:20:32.902Z,0.84
2023-03-12T00:22:59.640Z,0.84
2023-03-12T00:25:26.076Z,0.80
2023-03-12T00:27:52.459Z,0.84
2023-03-12T00:30:18.955Z,0.82
2023-03-12T00:32:45.492Z,0.80
2023-03-12T00:35:12.006Z,0.77
2023-03-12T00:37:38.669Z,0.76
2023-03-12T00:40:08.613Z,0.74
2023-03-12T00:42:35.008Z,0.73
2023-03-12T00:45:01.498Z,0.73
2023-03-12T00:47:27.877Z,0.74
2023-03-12T00:49:54.305Z,0.70
2023-03-12T00:52:20.758Z,0.67
2023-03-12T00:54:47.205Z,0.61
2023-03-12T00:57:13.545Z,0.64
2023-03-12T00:59:40.546Z,0.61
2023-03-12T01:02:08.334Z,0.61
2023-03-12T01:04:34.907Z,0.60
2023-03-12T01:07:01.344Z,0.59
2023-03-12T01:09:27.764Z,0.62
2023-03-12T01:11:54.257Z,0.59
2023-03-12T01:14:20.742Z,0.55
2023-03-12T01:16:47.161Z,0.54
2023-03-12T01:19:13.884Z,0.52
2023-03-12T01:21:40.531Z,0.51
2023-03-12T01:24:08.909Z,0.46
2023-03-12T01:26:35.316Z,0.44
2023-03-12T01:29:01.745Z,0.49
2023-03-12T01:31:28.225Z,0.52
2023-03-12T01:33:54.715Z,0.53
2023-03-12T01:36:27.085Z,0.58
2023-03-12T01:38:55.602Z,0.60
2023-03-12T01:41:23.200Z,0.55
2023-03-12T01:43:49.911Z,0.52
2023-03-12T01:46:35.286Z,0.58
2023-03-12T01:49:08.233Z,0.64
2023-03-12T01:51:45.923Z,0.72
2023-03-12T01:54:19.940Z,0.72
2023-03-12T01:56:47.613Z,0.72
2023-03-12T01:59:22.846Z,0.74
2023-03-12T02:01:50.904Z,0.70
2023-03-12T02:04:21.586Z,0.72
2023-03-12T02:07:05.932Z,0.75
2023-03-12T02:09:34.810Z,0.69
2023-03-12T02:12:01.277Z,0.74
2023-03-12T02:14:27.874Z,0.75
2023-03-12T02:16:55.659Z,0.81
2023-03-12T02:19:34.466Z,0.82
2023-03-12T02:22:03.128Z,0.84
2023-03-12T02:24:47.088Z,0.79
2023-03-12T02:27:14.386Z,0.74
2023-03-12T02:29:43.380Z,0.75
2023-03-12T02:32:18.201Z,0.73
2023-03-12T02:34:44.698Z,0.66
2023-03-12T02:37:11.152Z,0.68
2023-03-12T02:39:39.214Z,0.66
2023-03-12T02:42:05.914Z,0.64
2023-03-12T02:44:33.499Z,0.63
2023-03-12T02:47:01.482Z,0.58
2023-03-12T02:49:30.852Z,0.61
2023-03-12T02:51:57.873Z,0.54
2023-03-12T02:54:25.248Z,0.56
2023-03-12T02:56:52.435Z,0.64
2023-03-12T02:59:21.726Z,0.68
2023-03-12T03:01:52.659Z,0.70
2023-03-12T03:04:19.147Z,0.72
2023-03-12T03:06:47.640Z,0.66
2023-03-12T03:09:14.382Z,0.52
2023-03-12T03:11:41.415Z,0.46
2023-03-12T03:14:08.269Z,0.46
2023-03-12T03:16:34.760Z,0.50
2023-03-12T03:19:01.211Z,0.55
2023-03-12T03:21:27.654Z,0.56
2023-03-12T03:23:54.086Z,0.58
2023-03-12T03:26:23.176Z,0.60
2023-03-12T03:28:50.861Z,0.62
2023-03-12T03:31:18.093Z,0.67
2023-03-12T03:33:44.776Z,0.69
2023-03-12T03:36:14.875Z,0.71
2023-03-12T03:38:42.497Z,0.71
2023-03-12T03:41:08.974Z,0.73
2023-03-12T03:43:35.466Z,0.70
2023-03-12T03:46:06.190Z,0.67
2023-03-12T03:48:33.315Z,0.73
2023-03-12T03:51:01.804Z,0.80
2023-03-12T03:53:28.541Z,0.85
2023-03-12T03:55:55.021Z,0.87
2023-03-12T03:58:21.492Z,0.91
2023-03-12T04:00:47.947Z,0.94
2023-03-12T04:03:14.545Z,1.00
2023-03-12T04:05:45.212Z,1.04
2023-03-12T04:08:13.450Z,1.09
2023-03-12T04:10:40.304Z,1.12
2023-03-12T04:13:06.826Z,1.16
2023-03-12T04:15:33.218Z,1.19
2023-03-12T04:17:59.708Z,1.18
2023-03-12T04:20:26.129Z,1.12
2023-03-12T04:22:52.536Z,1.08
2023-03-12T04:25:19.100Z,1.03
2023-03-12T04:27:45.616Z,1.02
2023-03-12T04:30:12.634Z,1.07
2023-03-12T04:32:39.164Z,1.05
2023-03-12T04:35:05.723Z,1.05
2023-03-12T04:37:34.085Z,1.04
2023-03-12T04:40:02.565Z,1.04
2023-03-12T04:42:28.979Z,1.10
2023-03-12T04:44:55.457Z,1.13
2023-03-12T04:47:21.890Z,1.16
2023-03-12T04:49:48.369Z,1.16
2023-03-12T04:52:14.823Z,1.17
2023-03-12T04:54:41.279Z,1.18
2023-03-12T04:57:08.975Z,1.21
2023-03-12T04:59:35.488Z,1.25
2023-03-12T05:02:01.924Z,1.28
2023-03-12T05:04:28.451Z,1.28
2023-03-12T05:06:54.882Z,1.27
2023-03-12T05:09:21.346Z,1.26
2023-03-12T05:11:47.891Z,1.25
2023-03-12T05:14:14.321Z,1.22
2023-03-12T05:16:40.789Z,1.21
2023-03-12T05:19:07.270Z,1.23
2023-03-12T05:21:33.824Z,1.26
2023-03-12T05:24:00.835Z,1.28
2023-03-12T05:26:32.064Z,1.31
2023-03-12T05:29:00.080Z,1.34
2023-03-12T05:31:27.842Z,1.35
2023-03-12T05:33:54.548Z,1.34
2023-03-12T05:36:21.025Z,1.33
2023-03-12T05:38:47.408Z,1.35
2023-03-12T05:41:25.693Z,1.41
2023-03-12T05:43:54.259Z,1.45
2023-03-12T05:46:21.125Z,1.49
2023-03-12T05:48:47.620Z,1.50
2023-03-12T05:51:14.470Z,1.46
2023-03-12T05:53:40.961Z,1.46
2023-03-12T05:56:11.546Z,1.48
2023-03-12T05:58:38.296Z,1.49
2023-03-12T06:01:12.335Z,1.55
2023-03-12T06:03:38.903Z,1.62
2023-03-12T06:06:05.641Z,1.65
2023-03-12T06:08:32.027Z,1.68
2023-03-12T06:10:59.369Z,1.71
2023-03-12T06:13:27.318Z,1.72
2023-03-12T06:15:54.344Z,1.74
2023-03-12T06:18:21.090Z,1.75
2023-03-12T06:20:47.466Z,1.79
2023-03-12T06:23:13.991Z,1.84
2023-03-12T06:25:40.408Z,1.82
2023-03-12T06:28:06.878Z,1.79
2023-03-12T06:30:33.390Z,1.81
2023-03-12T06:32:59.841Z,1.81
2023-03-12T06:35:26.341Z,1.82
2023-03-12T06:37:52.762Z,1.87
2023-03-12T06:40:19.243Z,1.93
2023-03-12T06:42:45.672Z,1.94
2023-03-12T06:45:12.065Z,1.98
2023-03-12T06:47:38.544Z,2.00
2023-03-12T06:50:05.406Z,1.94
2023-03-12T06:52:31.883Z,1.89
2023-03-12T06:54:58.287Z,1.82
2023-03-12T06:57:24.740Z,1.81
2023-03-12T06:59:51.807Z,1.80
2023-03-12T07:02:18.327Z,1.80
2023-03-12T07:04:44.793Z,1.81
2023-03-12T07:07:11.988Z,1.89
2023-03-12T07:09:38.578Z,1.96
2023-03-12T07:12:05.146Z,1.97
2023-03-12T07:14:31.562Z,2.01
2023-03-12T07:16:59.011Z,2.07
2023-03-12T07:19:25.441Z,2.12
2023-03-12T07:21:51.892Z,2.13
2023-03-12T07:24:18.298Z,2.18
2023-03-12T07:26:44.702Z,2.19
2023-03-12T07:29:11.475Z,2.09
2023-03-12T07:31:37.980Z,2.04
2023-03-12T07:34:06.275Z,2.01
2023-03-12T07:36:33.463Z,2.02
2023-03-12T07:38:59.944Z,2.02
2023-03-12T07:41:26.459Z,2.07
2023-03-12T07:43:52.873Z,2.16
2023-03-12T07:46:19.338Z,2.25
2023-03-12T07:48:45.771Z,2.31
2023-03-12T07:51:12.236Z,2.40
2023-03-12T07:53:38.746Z,2.56
2023-03-12T07:56:05.723Z,2.61
2023-03-12T07:58:32.702Z,2.69
2023-03-12T08:00:59.265Z,2.78
2023-03-12T08:03:26.050Z,2.85
2023-03-12T08:05:57.645Z,2.93
2023-03-12T08:08:24.187Z,2.97
2023-03-12T08:10:50.656Z,3.05
2023-03-12T08:13:17.779Z,3.04
2023-03-12T08:15:44.300Z,3.07
2023-03-12T08:18:10.719Z,3.04
2023-03-12T08:20:37.155Z,3.02
2023-03-12T08:23:03.514Z,3.01
2023-03-12T08:25:30.062Z,3.04
2023-03-12T08:27:56.500Z,3.05
2023-03-12T08:30:22.969Z,3.03
2023-03-12T08:32:49.457Z,3.00
2023-03-12T08:35:16.023Z,3.10
2023-03-12T08:37:42.434Z,3.15
2023-03-12T08:40:13.141Z,3.14
2023-03-12T08:42:41.426Z,3.15
2023-03-12T08:45:09.106Z,3.14
2023-03-12T08:47:35.608Z,3.22
2023-03-12T08:50:02.383Z,3.27
2023-03-12T08:52:28.783Z,3.31
2023-03-12T08:54:55.396Z,3.44
2023-03-12T08:57:21.939Z,3.54
2023-03-12T08:59:48.588Z,3.55
2023-03-12T09:02:14.987Z,3.61
2023-03-12T09:04:41.391Z,3.77
2023-03-12T09:07:09.681Z,3.94
2023-03-12T09:09:36.064Z,4.03
2023-03-12T09:12:02.442Z,4.14
2023-03-12T09:15:01.641Z,4.23
2023-03-12T09:17:15.298Z,4.33
2023-03-12T09:19:41.717Z,4.44
2023-03-12T09:22:08.236Z,4.53
2023-03-12T09:24:34.894Z,4.59
2023-03-12T09:27:04.239Z,4.65
2023-03-12T09:29:31.916Z,4.74
2023-03-12T09:31:58.608Z,4.82
2023-03-12T09:34:25.132Z,4.92
2023-03-12T09:36:52.143Z,4.99
2023-03-12T09:39:20.740Z,5.04
2023-03-12T09:41:48.427Z,5.10
2023-03-12T09:44:26.246Z,5.14
2023-03-12T09:46:56.180Z,5.13
2023-03-12T09:49:40.822Z,5.15
2023-03-12T09:52:29.800Z,5.15
2023-03-12T09:55:14.970Z,5.22
2023-03-12T09:57:41.883Z,5.34
2023-03-12T10:00:16.560Z,5.50
2023-03-12T10:03:04.969Z,5.59
2023-03-12T10:05:44.149Z,5.63
2023-03-12T10:08:28.429Z,5.76
2023-03-12T10:11:05.497Z,6.00
2023-03-12T10:13:53.245Z,6.25
2023-03-12T10:16:32.724Z,6.40
2023-03-12T10:19:06.840Z,6.58
2023-03-12T10:21:48.343Z,6.69
2023-03-12T10:24:45.691Z,6.71
2023-03-12T10:27:15.519Z,6.67
2023-03-12T10:29:45.156Z,6.73
2023-03-12T10:32:11.688Z,6.89
2023-03-12T10:34:42.775Z,7.01
2023-03-12T10:37:18.444Z,7.12
2023-03-12T10:39:45.996Z,7.12
2023-03-12T10:42:18.722Z,7.05
2023-03-12T10:44:52.363Z,7.00
2023-03-12T10:47:32.679Z,6.93
2023-03-12T10:50:20.131Z,6.90
2023-03-12T10:55:23.354Z,6.82
2023-03-12T10:57:50.890Z,6.78
2023-03-12T11:00:35.272Z,6.77
2023-03-12T11:03:05.302Z,6.75
2023-03-12T11:05:50.942Z,6.75
2023-03-12T11:08:23.840Z,6.77
2023-03-12T11:10:50.486Z,6.79
2023-03-12T11:13:24.919Z,6.87
2023-03-12T11:15:52.837Z,6.93
2023-03-12T11:18:34.319Z,7.03
2023-03-12T11:21:09.487Z,7.16
2023-03-12T11:23:38.705Z,7.36
2023-03-12T11:26:14.297Z,7.75
2023-03-12T11:28:44.614Z,8.13
2023-03-12T11:31:33.790Z,8.26
2023-03-12T11:34:05.233Z,8.26
2023-03-12T11:36:46.877Z,8.30
2023-03-12T11:39:48.404Z,8.38
2023-03-12T11:42:40.384Z,8.52
2023-03-12T11:45:34.620Z,8.66
2023-03-12T11:48:13.447Z,8.81
2023-03-12T11:51:12.880Z,9.00
2023-03-12T11:54:11.184Z,9.10
2023-03-12T11:56:44.982Z,9.13
2023-03-12T11:59:43.746Z,9.16
2023-03-12T12:02:51.204Z,9.11
2023-03-12T12:05:31.889Z,9.08
2023-03-12T12:08:19.007Z,9.04
2023-03-12T12:11:01.026Z,9.02
2023-03-12T12:13:45.958Z,9.07
2023-03-12T12:16:41.679Z,9.11
2023-03-12T12:19:20.521Z,9.12
2023-03-12T12:22:08.707Z,9.30
2023-03-12T12:25:14.515Z,9.49
2023-03-12T12:27:50.226Z,9.54
2023-03-12T12:30:35.375Z,9.77
2023-03-12T12:33:11.421Z,9.94
2023-03-12T12:35:43.091Z,10.08
2023-03-12T12:38:33.684Z,10.10
2023-03-12T12:41:09.961Z,10.11
2023-03-12T12:43:47.477Z,10.11
2023-03-12T12:46:28.402Z,10.15
2023-03-12T12:49:13.419Z,10.17
2023-03-12T12:51:43.923Z,10.17
2023-03-12T12:54:27.202Z,10.17
2023-03-12T12:57:04.740Z,10.12
2023-03-12T12:59:43.655Z,10.14
2023-03-12T13:02:29.351Z,10.14
2023-03-12T13:04:58.913Z,10.12
2023-03-12T13:07:27.828Z,10.12
2023-03-12T13:09:56.969Z,10.10
2023-03-12T13:12:43.458Z,10.05
2023-03-12T13:15:28.535Z,10.02
2023-03-12T13:17:55.006Z,10.01
2023-03-12T13:20:25.106Z,10.00
2023-03-12T13:23:05.539Z,10.02
2023-03-12T13:25:34.711Z,10.03
2023-03-12T13:28:39.035Z,10.07
2023-03-12T13:31:14.736Z,10.19
2023-03-12T13:33:48.396Z,10.37
2023-03-12T13:36:17.581Z,10.55
2023-03-12T13:39:00.162Z,11.15
2023-03-12T13:41:50.675Z,11.14
2023-03-12T13:44:23.103Z,11.00
2023-03-12T13:47:11.428Z,10.81
2023-03-12T13:49:51.798Z,10.71
2023-03-12T13:52:40.748Z,10.64
2023-03-12T13:55:13.078Z,10.85
2023-03-12T13:57:44.353Z,11.16
2023-03-12T14:00:27.895Z,11.60
2023-03-12T14:03:11.605Z,11.69
2023-03-12T14:06:04.439Z,11.67
2023-03-12T14:08:51.581Z,11.57
2023-03-12T14:11:33.810Z,11.45
2023-03-12T14:14:27.685Z,11.24
2023-03-12T14:17:01.381Z,11.10
2023-03-12T14:19:35.708Z,10.96
2023-03-12T14:22:06.657Z,10.86
2023-03-12T14:24:37.049Z,10.79
2023-03-12T14:27:06.446Z,10.77
2023-03-12T14:29:42.479Z,10.77
2023-03-12T14:32:31.475Z,10.68
2023-03-12T14:35:10.234Z,10.56
2023-03-12T14:37:41.201Z,10.43
2023-03-12T14:40:21.677Z,10.44
2023-03-12T14:42:48.304Z,10.49
2023-03-12T14:45:18.711Z,10.71
2023-03-12T14:47:48.447Z,11.02
2023-03-12T14:50:24.522Z,11.24
2023-03-12T14:52:51.710Z,11.43
2023-03-12T14:55:23.943Z,11.63
2023-03-12T14:58:03.789Z,11.71
2023-03-12T15:00:30.610Z,11.62
2023-03-12T15:03:03.161Z,11.62
2023-03-12T15:05:29.835Z,11.66
2023-03-12T15:08:02.658Z,11.83
2023-03-12T15:10:31.461Z,12.03
2023-03-12T15:13:00.123Z,12.11
2023-03-12T15:15:41.531Z,12.07
2023-03-12T15:18:18.715Z,12.11
2023-03-12T15:20:48.004Z,12.14
2023-03-12T15:23:17.606Z,12.10
2023-03-12T15:25:45.035Z,11.93
2023-03-12T15:28:11.455Z,11.76
2023-03-12T15:30:40.582Z,11.71
2023-03-12T15:33:10.182Z,11.74
2023-03-12T15:35:40.378Z,11.74
2023-03-12T15:38:14.984Z,11.71
2023-03-12T15:40:41.899Z,11.60
2023-03-12T15:43:17.655Z,11.46
2023-03-12T15:45:44.483Z,11.43
2023-03-12T15:48:46.476Z,11.39
2023-03-12T15:51:14.865Z,11.32
2023-03-12T15:53:41.389Z,11.24
2023-03-12T15:56:10.603Z,11.18
2023-03-12T15:58:41.918Z,11.11
2023-03-12T16:01:14.262Z,11.04
2023-03-12T16:03:42.727Z,11.00
2023-03-12T16:06:12.763Z,10.99
2023-03-12T16:08:49.030Z,10.98
2023-03-12T16:11:18.513Z,10.96
2023-03-12T16:13:47.235Z,11.00
2023-03-12T16:16:14.509Z,10.96
2023-03-12T16:18:42.230Z,10.95
2023-03-12T16:21:11.398Z,10.92
2023-03-12T16:23:38.044Z,10.88
2023-03-12T16:26:06.248Z,10.90
2023-03-12T16:28:35.209Z,10.90
2023-03-12T16:31:02.305Z,10.85
2023-03-12T16:33:28.792Z,10.80
2023-03-12T16:35:56.021Z,10.75
2023-03-12T16:38:22.434Z,10.72
2023-03-12T16:40:50.840Z,10.72
2023-03-12T16:43:20.358Z,10.68
2023-03-12T16:45:48.475Z,10.71
2023-03-12T16:48:22.439Z,10.75
2023-03-12T16:50:51.854Z,10.71
2023-03-12T16:53:18.851Z,10.66
2023-03-12T16:55:52.078Z,10.66
2023-03-12T16:58:20.172Z,10.63
2023-03-12T17:00:47.963Z,10.62
2023-03-12T17:03:30.473Z,10.56
2023-03-12T17:05:57.571Z,10.55
2023-03-12T17:08:24.262Z,10.53
2023-03-12T17:10:51.222Z,10.54
2023-03-12T17:13:21.290Z,10.48
2023-03-12T17:15:49.292Z,10.46
2023-03-12T17:18:17.162Z,10.44
2023-03-12T17:20:43.872Z,10.45
2023-03-12T17:23:10.786Z,10.46
2023-03-12T17:25:40.491Z,10.43
2023-03-12T17:28:07.875Z,10.37
2023-03-12T17:30:35.354Z,10.31
2023-03-12T17:33:08.359Z,10.32
2023-03-12T17:35:34.958Z,10.29
2023-03-12T17:38:01.728Z,10.22
2023-03-12T17:40:28.565Z,10.13
2023-03-12T17:42:55.082Z,10.08
2023-03-12T17:45:21.803Z,9.99
2023-03-12T17:47:48.605Z,9.97
2023-03-12T17:50:15.747Z,9.94
2023-03-12T17:52:42.260Z,9.87
2023-03-12T17:55:11.445Z,9.82
2023-03-12T17:57:38.540Z,9.80
2023-03-12T18:00:11.522Z,9.79
2023-03-12T18:02:41.554Z,9.78
2023-03-12T18:05:09.779Z,9.74
2023-03-12T18:07:36.543Z,9.69
2023-03-12T18:10:05.592Z,9.63
2023-03-12T18:12:32.862Z,9.61
2023-03-12T18:14:59.432Z,9.61
2023-03-12T18:17:26.034Z,9.58
2023-03-12T18:19:52.566Z,9.57
2023-03-12T18:22:19.921Z,9.60
2023-03-12T18:24:46.908Z,9.58
2023-03-12T18:27:13.391Z,9.57
2023-03-12T18:29:41.067Z,9.56
2023-03-12T18:32:07.866Z,9.50
2023-03-12T18:34:34.343Z,9.50
2023-03-12T18:37:00.767Z,9.48
2023-03-12T18:39:27.273Z,9.48
2023-03-12T18:41:56.762Z,9.47
2023-03-12T18:44:23.231Z,9.48
2023-03-12T18:46:51.725Z,9.48
2023-03-12T18:49:18.351Z,9.48
2023-03-12T18:51:44.910Z,9.48
2023-03-12T18:54:12.832Z,9.51
2023-03-12T18:56:40.778Z,9.51
2023-03-12T18:59:09.782Z,9.53
2023-03-12T19:01:36.572Z,9.50
2023-03-12T19:04:03.196Z,9.49
2023-03-12T19:06:40.767Z,9.45
2023-03-12T19:09:14.715Z,9.43
2023-03-12T19:11:41.345Z,9.40
2023-03-12T19:14:07.883Z,9.37
2023-03-12T19:16:34.603Z,9.34
2023-03-12T19:19:01.051Z,9.30
2023-03-12T19:21:27.543Z,9.27
2023-03-12T19:23:54.017Z,9.24
2023-03-12T19:26:20.565Z,9.21
2023-03-12T19:28:47.054Z,9.19
2023-03-12T19:31:15.327Z,9.19
2023-03-12T19:33:43.117Z,9.18
2023-03-12T19:36:09.722Z,9.14
2023-03-12T19:38:36.607Z,9.12
2023-03-12T19:41:03.270Z,9.11
2023-03-12T19:43:29.736Z,9.12
2023-03-12T19:45:56.265Z,9.13
2023-03-12T19:48:25.189Z,9.13
2023-03-12T19:50:53.576Z,9.14
2023-03-12T19:53:20.085Z,9.13
2023-03-12T19:55:48.143Z,9.17
2023-03-12T19:58:15.090Z,9.20
2023-03-12T20:00:41.997Z,9.23
2023-03-12T20:03:08.744Z,9.25
2023-03-12T20:05:35.447Z,9.25
2023-03-12T20:08:01.896Z,9.27
2023-03-12T20:10:29.323Z,9.26
2023-03-12T20:12:55.827Z,9.22
2023-03-12T20:15:22.271Z,9.23
2023-03-12T20:17:48.743Z,9.21
2023-03-12T20:20:16.563Z,9.19
2023-03-12T20:22:43.008Z,9.13
2023-03-12T20:25:10.377Z,9.11
2023-03-12T20:27:37.499Z,9.14
2023-03-12T20:30:04.964Z,9.12
2023-03-12T20:32:31.550Z,9.13
2023-03-12T20:34:58.000Z,9.14
2023-03-12T20:37:24.458Z,9.11
2023-03-12T20:39:50.868Z,9.10
2023-03-12T20:42:17.314Z,9.08
2023-03-12T20:44:43.739Z,9.09
2023-03-12T20:47:10.110Z,9.07
2023-03-12T20:49:36.503Z,9.07
2023-03-12T20:52:03.415Z,9.07
2023-03-12T20:54:30.079Z,9.04
2023-03-12T20:56:56.480Z,9.05
2023-03-12T20:59:22.869Z,9.01
2023-03-12T21:01:49.258Z,9.00
2023-03-12T21:04:15.672Z,8.98
2023-03-12T21:06:42.204Z,8.98
2023-03-12T21:09:08.625Z,8.96
2023-03-12T21:11:35.189Z,8.92
2023-03-12T21:14:01.752Z,8.91
2023-03-12T21:16:28.418Z,8.88
2023-03-12T21:18:58.535Z,8.88
2023-03-12T21:21:25.247Z,8.89
2023-03-12T21:23:51.801Z,8.90
2023-03-12T21:26:18.652Z,8.91
2023-03-12T21:28:45.454Z,8.89
2023-03-12T21:31:18.093Z,8.89
2023-03-12T21:33:44.607Z,8.89
2023-03-12T21:36:13.641Z,8.88
2023-03-12T21:38:42.688Z,8.88
2023-03-12T21:41:16.076Z,8.85
2023-03-12T21:43:43.979Z,8.85
2023-03-12T21:46:14.257Z,8.80
2023-03-12T21:48:44.704Z,8.78
2023-03-12T21:51:13.623Z,8.75
2023-03-12T21:53:40.173Z,8.71
2023-03-12T21:56:09.153Z,8.67
2023-03-12T21:58:36.555Z,8.63
2023-03-12T22:01:14.807Z,8.59
2023-03-12T22:03:42.719Z,8.58
2023-03-12T22:06:10.220Z,8.55
2023-03-12T22:08:36.868Z,8.56
2023-03-12T22:11:04.977Z,8.55
2023-03-12T22:13:31.681Z,8.56
2023-03-12T22:16:01.488Z,8.56
2023-03-12T22:18:29.185Z,8.57
2023-03-12T22:21:01.538Z,8.54
2023-03-12T22:23:28.735Z,8.53
2023-03-12T22:25:55.624Z,8.48
2023-03-12T22:28:25.715Z,8.41
2023-03-12T22:31:00.346Z,8.36
2023-03-12T22:33:27.868Z,8.32
2023-03-12T22:35:54.663Z,8.30
2023-03-12T22:38:21.964Z,8.29
2023-03-12T22:40:48.705Z,8.28
2023-03-12T22:43:15.459Z,8.26
2023-03-12T22:45:42.371Z,8.27
2023-03-12T22:48:08.795Z,8.26
2023-03-12T22:50:35.164Z,8.23
2023-03-12T22:53:01.544Z,8.22
2023-03-12T22:55:27.989Z,8.22
2023-03-12T22:57:54.341Z,8.20
2023-03-12T23:00:24.221Z,8.23
2023-03-12T23:02:50.635Z,8.22
2023-03-12T23:05:17.290Z,8.23
2023-03-12T23:07:43.923Z,8.21
2023-03-12T23:10:10.870Z,8.18
2023-03-12T23:12:37.227Z,8.15
2023-03-12T23:15:03.914Z,8.11
2023-03-12T23:17:30.460Z,8.12
2023-03-12T23:19:56.884Z,8.07
2023-03-12T23:22:23.328Z,8.05
2023-03-12T23:24:49.917Z,8.04
2023-03-12T23:27:16.409Z,7.99
2023-03-12T23:29:42.868Z,7.94
2023-03-12T23:32:09.479Z,7.86
2023-03-12T23:34:35.840Z,7.80
2023-03-12T23:37:02.315Z,7.74
2023-03-12T23:39:29.985Z,7.68
2023-03-12T23:41:57.632Z,7.62
2023-03-12T23:44:24.302Z,7.59
2023-03-12T23:46:51.015Z,7.56
2023-03-12T23:49:17.485Z,7.52
2023-03-12T23:51:43.889Z,7.53
2023-03-12T23:54:10.391Z,7.53
2023-03-12T23:56:39.396Z,7.55
2023-03-12T23:59:07.925Z,7.60
